sensor_id;sensor_type;location;lat;lon;timestamp;pressure;altitude;pressure_sealevel;temperature;humidity
40596;BME280;26304;48.794;9.820;2023-01-30T00:02:38;96849.59;;;14.49;52.59
40596;BME280;26304;48.794;9.820;2023-01-30T00:08:22;96838.72;;;14.47;53.71
40596;BME280;26304;48.794;9.820;2023-01-30T00:14:04;96835.22;;;14.43;53.04
40596;BME280;26304;48.794;9.820;2023-01-30T00:19:47;96815.38;;;14.42;53.55
40596;BME280;26304;48.794;9.820;2023-01-30T00:25:31;96807.09;;;14.40;53.02
40596;BME280;26304;48.794;9.820;2023-01-30T00:31:13;96804.72;;;14.35;53.71
40596;BME280;26304;48.794;9.820;2023-01-30T00:36:55;96796.91;;;14.23;54.58
40596;BME280;26304;48.794;9.820;2023-01-30T00:42:39;96783.41;;;14.21;54.34
40596;BME280;26304;48.794;9.820;2023-01-30T00:48:39;96786.34;;;14.19;54.82
40596;BME280;26304;48.794;9.820;2023-01-30T00:54:21;96787.16;;;14.07;55.11
40596;BME280;26304;48.794;9.820;2023-01-30T01:00:07;96795.09;;;14.11;55.35
40596;BME280;26304;48.794;9.820;2023-01-30T01:05:50;96810.34;;;14.09;54.86
40596;BME280;26304;48.794;9.820;2023-01-30T01:11:33;96825.91;;;14.05;54.95
40596;BME280;26304;48.794;9.820;2023-01-30T01:17:16;96829.84;;;13.99;55.26
40596;BME280;26304;48.794;9.820;2023-01-30T01:22:59;96849.88;;;13.95;55.19
40596;BME280;26304;48.794;9.820;2023-01-30T01:28:41;96866.09;;;14.01;55.24
40596;BME280;26304;48.794;9.820;2023-01-30T01:34:25;96856.84;;;13.91;55.53
40596;BME280;26304;48.794;9.820;2023-01-30T01:40:15;96859.91;;;13.93;55.35
40596;BME280;26304;48.794;9.820;2023-01-30T01:46:19;96858.47;;;13.83;55.93
40596;BME280;26304;48.794;9.820;2023-01-30T01:52:08;96882.31;;;13.81;56.39
40596;BME280;26304;48.794;9.820;2023-01-30T01:57:54;96839.66;;;13.77;56.37
40596;BME280;26304;48.794;9.820;2023-01-30T02:03:41;96860.97;;;13.79;55.33
40596;BME280;26304;48.794;9.820;2023-01-30T02:09:26;96840.84;;;13.80;55.92
40596;BME280;26304;48.794;9.820;2023-01-30T02:15:09;96852.28;;;13.75;56.07
40596;BME280;26304;48.794;9.820;2023-01-30T02:21:05;96837.25;;;13.72;56.24
40596;BME280;26304;48.794;9.820;2023-01-30T02:27:14;96853.81;;;14.01;55.52
40596;BME280;26304;48.794;9.820;2023-01-30T02:33:09;96829.16;;;14.14;54.61
40596;BME280;26304;48.794;9.820;2023-01-30T02:39:00;96822.50;;;14.29;54.49
40596;BME280;26304;48.794;9.820;2023-01-30T02:44:48;96797.31;;;14.37;53.76
40596;BME280;26304;48.794;9.820;2023-01-30T02:50:39;96809.50;;;14.45;54.29
40596;BME280;26304;48.794;9.820;2023-01-30T02:56:24;96789.84;;;14.51;53.57
40596;BME280;26304;48.794;9.820;2023-01-30T03:08:30;96812.41;;;14.68;53.54
40596;BME280;26304;48.794;9.820;2023-01-30T03:14:20;96796.13;;;14.75;53.71
40596;BME280;26304;48.794;9.820;2023-01-30T03:20:07;96785.41;;;14.80;53.54
40596;BME280;26304;48.794;9.820;2023-01-30T03:25:51;96769.22;;;14.91;52.96
40596;BME280;26304;48.794;9.820;2023-01-30T03:31:33;96762.81;;;15.04;52.91
40596;BME280;26304;48.794;9.820;2023-01-30T03:37:16;96719.31;;;15.15;52.45
40596;BME280;26304;48.794;9.820;2023-01-30T03:42:59;96672.53;;;14.98;52.55
40596;BME280;26304;48.794;9.820;2023-01-30T03:48:42;96696.25;;;14.73;53.41
40596;BME280;26304;48.794;9.820;2023-01-30T03:54:24;96704.13;;;14.73;53.66
40596;BME280;26304;48.794;9.820;2023-01-30T04:00:09;96692.13;;;15.04;53.03
40596;BME280;26304;48.794;9.820;2023-01-30T04:05:52;96698.22;;;15.08;52.95
40596;BME280;26304;48.794;9.820;2023-01-30T04:11:34;96709.03;;;15.22;52.37
40596;BME280;26304;48.794;9.820;2023-01-30T04:17:18;96699.38;;;15.26;52.58
40596;BME280;26304;48.794;9.820;2023-01-30T04:23:00;96693.06;;;15.12;52.48
40596;BME280;26304;48.794;9.820;2023-01-30T04:28:43;96704.06;;;15.01;53.13
40596;BME280;26304;48.794;9.820;2023-01-30T04:34:27;96712.59;;;15.14;52.96
40596;BME280;26304;48.794;9.820;2023-01-30T04:40:10;96689.75;;;15.31;52.82
40596;BME280;26304;48.794;9.820;2023-01-30T04:45:53;96689.81;;;15.50;52.19
40596;BME280;26304;48.794;9.820;2023-01-30T04:51:37;96689.97;;;15.57;52.08
40596;BME280;26304;48.794;9.820;2023-01-30T04:57:19;96701.56;;;15.76;52.18
40596;BME280;26304;48.794;9.820;2023-01-30T05:03:02;96690.38;;;15.95;51.63
40596;BME280;26304;48.794;9.820;2023-01-30T05:08:48;96694.19;;;15.97;51.63
40596;BME280;26304;48.794;9.820;2023-01-30T05:14:30;96686.59;;;16.31;52.45
40596;BME280;26304;48.794;9.820;2023-01-30T05:20:13;96688.28;;;16.43;51.86
40596;BME280;26304;48.794;9.820;2023-01-30T05:25:56;96678.22;;;16.45;51.78
40596;BME280;26304;48.794;9.820;2023-01-30T05:31:39;96675.47;;;16.38;52.10
40596;BME280;26304;48.794;9.820;2023-01-30T05:37:22;96647.97;;;15.89;49.76
40596;BME280;26304;48.794;9.820;2023-01-30T05:43:06;96648.25;;;15.68;48.16
40596;BME280;26304;48.794;9.820;2023-01-30T05:48:49;96653.53;;;15.52;47.66
40596;BME280;26304;48.794;9.820;2023-01-30T05:54:33;96644.66;;;15.21;47.55
40596;BME280;26304;48.794;9.820;2023-01-30T06:00:17;96643.28;;;15.28;47.47
40596;BME280;26304;48.794;9.820;2023-01-30T06:06:00;96654.97;;;15.14;47.29
40596;BME280;26304;48.794;9.820;2023-01-30T06:11:43;96643.47;;;15.03;47.81
40596;BME280;26304;48.794;9.820;2023-01-30T06:17:26;96633.75;;;15.19;50.25
40596;BME280;26304;48.794;9.820;2023-01-30T06:23:09;96629.78;;;15.25;48.98
40596;BME280;26304;48.794;9.820;2023-01-30T06:28:51;96639.06;;;15.23;50.36
40596;BME280;26304;48.794;9.820;2023-01-30T06:34:35;96630.84;;;15.05;51.73
40596;BME280;26304;48.794;9.820;2023-01-30T06:40:18;96627.84;;;15.22;51.92
40596;BME280;26304;48.794;9.820;2023-01-30T06:46:00;96631.16;;;15.19;52.34
40596;BME280;26304;48.794;9.820;2023-01-30T06:51:44;96638.66;;;15.21;52.22
40596;BME280;26304;48.794;9.820;2023-01-30T06:57:26;96660.28;;;15.34;51.44
40596;BME280;26304;48.794;9.820;2023-01-30T07:03:09;96633.16;;;15.26;52.03
40596;BME280;26304;48.794;9.820;2023-01-30T07:09:07;96628.34;;;15.28;51.64
40596;BME280;26304;48.794;9.820;2023-01-30T07:14:49;96622.50;;;15.19;52.10
40596;BME280;26304;48.794;9.820;2023-01-30T07:20:32;96632.34;;;15.06;52.83
40596;BME280;26304;48.794;9.820;2023-01-30T07:26:16;96639.50;;;15.09;52.50
40596;BME280;26304;48.794;9.820;2023-01-30T07:31:58;96644.84;;;14.97;52.67
40596;BME280;26304;48.794;9.820;2023-01-30T07:37:44;96637.91;;;14.88;53.53
40596;BME280;26304;48.794;9.820;2023-01-30T07:43:27;96645.53;;;14.94;53.51
40596;BME280;26304;48.794;9.820;2023-01-30T07:49:10;96647.72;;;14.92;53.52
40596;BME280;26304;48.794;9.820;2023-01-30T07:54:52;96652.78;;;14.84;53.90
40596;BME280;26304;48.794;9.820;2023-01-30T08:00:36;96651.53;;;14.78;53.23
40596;BME280;26304;48.794;9.820;2023-01-30T08:06:18;96643.66;;;14.78;53.45
40596;BME280;26304;48.794;9.820;2023-01-30T08:12:01;96653.28;;;14.74;53.51
40596;BME280;26304;48.794;9.820;2023-01-30T08:17:52;96639.03;;;14.71;53.25
40596;BME280;26304;48.794;9.820;2023-01-30T08:23:35;96675.59;;;14.68;53.42
40596;BME280;26304;48.794;9.820;2023-01-30T08:29:17;96654.88;;;14.63;53.82
40596;BME280;26304;48.794;9.820;2023-01-30T08:35:01;96644.31;;;14.59;53.02
40596;BME280;26304;48.794;9.820;2023-01-30T08:40:43;96625.50;;;14.53;52.92
40596;BME280;26304;48.794;9.820;2023-01-30T08:46:26;96630.28;;;14.51;53.51
40596;BME280;26304;48.794;9.820;2023-01-30T08:52:09;96633.25;;;14.50;53.12
40596;BME280;26304;48.794;9.820;2023-01-30T08:57:54;96613.31;;;14.45;53.10
40596;BME280;26304;48.794;9.820;2023-01-30T09:03:37;96610.13;;;14.36;52.73
40596;BME280;26304;48.794;9.820;2023-01-30T09:09:21;96584.66;;;14.33;52.92
40596;BME280;26304;48.794;9.820;2023-01-30T09:15:04;96571.47;;;14.29;52.71
40596;BME280;26304;48.794;9.820;2023-01-30T09:20:47;96567.75;;;14.30;52.73
40596;BME280;26304;48.794;9.820;2023-01-30T09:26:31;96576.34;;;14.31;53.33
40596;BME280;26304;48.794;9.820;2023-01-30T09:32:13;96578.97;;;14.31;52.73
40596;BME280;26304;48.794;9.820;2023-01-30T09:37:56;96565.47;;;14.29;52.69
40596;BME280;26304;48.794;9.820;2023-01-30T09:43:49;96568.00;;;14.25;52.81
40596;BME280;26304;48.794;9.820;2023-01-30T09:49:44;96546.41;;;14.28;52.47
40596;BME280;26304;48.794;9.820;2023-01-30T09:55:32;96540.84;;;14.30;52.63
40596;BME280;26304;48.794;9.820;2023-01-30T10:01:22;96542.94;;;14.24;52.60
40596;BME280;26304;48.794;9.820;2023-01-30T10:07:15;96536.22;;;14.23;52.28
40596;BME280;26304;48.794;9.820;2023-01-30T10:13:06;96527.59;;;14.23;52.55
40596;BME280;26304;48.794;9.820;2023-01-30T10:19:22;96514.38;;;14.15;52.10
40596;BME280;26304;48.794;9.820;2023-01-30T10:25:20;96511.31;;;14.13;52.20
40596;BME280;26304;48.794;9.820;2023-01-30T10:31:09;96509.47;;;14.46;52.76
40596;BME280;26304;48.794;9.820;2023-01-30T10:36:58;96511.31;;;14.45;52.28
40596;BME280;26304;48.794;9.820;2023-01-30T10:42:49;96520.59;;;14.59;52.11
40596;BME280;26304;48.794;9.820;2023-01-30T10:48:57;96520.84;;;14.85;51.65
40596;BME280;26304;48.794;9.820;2023-01-30T10:54:47;96494.34;;;15.06;52.48
40596;BME280;26304;48.794;9.820;2023-01-30T11:00:35;96490.31;;;15.29;52.75
40596;BME280;26304;48.794;9.820;2023-01-30T11:06:22;96493.03;;;15.36;52.51
40596;BME280;26304;48.794;9.820;2023-01-30T11:12:07;96501.44;;;15.45;52.25
40596;BME280;26304;48.794;9.820;2023-01-30T11:17:50;96483.28;;;15.75;52.45
40596;BME280;26304;48.794;9.820;2023-01-30T11:23:44;96483.16;;;15.68;52.05
40596;BME280;26304;48.794;9.820;2023-01-30T11:29:30;96485.25;;;15.59;52.25
40596;BME280;26304;48.794;9.820;2023-01-30T11:35:23;96481.19;;;15.42;52.79
40596;BME280;26304;48.794;9.820;2023-01-30T11:41:17;96476.53;;;15.32;52.23
40596;BME280;26304;48.794;9.820;2023-01-30T11:47:05;96499.25;;;15.28;52.28
40596;BME280;26304;48.794;9.820;2023-01-30T11:52:48;96489.78;;;15.42;52.26
40596;BME280;26304;48.794;9.820;2023-01-30T11:58:32;96475.47;;;15.56;52.54
40596;BME280;26304;48.794;9.820;2023-01-30T12:04:17;96453.44;;;15.80;52.78
40596;BME280;26304;48.794;9.820;2023-01-30T12:10:00;96451.44;;;15.73;52.98
40596;BME280;26304;48.794;9.820;2023-01-30T12:15:43;96430.47;;;15.96;52.28
40596;BME280;26304;48.794;9.820;2023-01-30T12:21:36;96426.53;;;16.33;51.11
40596;BME280;26304;48.794;9.820;2023-01-30T12:27:24;96426.75;;;17.08;50.31
40596;BME280;26304;48.794;9.820;2023-01-30T12:33:11;96426.00;;;17.86;48.78
40596;BME280;26304;48.794;9.820;2023-01-30T12:39:04;96440.69;;;18.39;48.18
40596;BME280;26304;48.794;9.820;2023-01-30T12:44:57;96458.16;;;18.65;48.07
40596;BME280;26304;48.794;9.820;2023-01-30T12:50:52;96465.84;;;18.96;47.73
40596;BME280;26304;48.794;9.820;2023-01-30T12:56:49;96477.72;;;19.70;46.57
40596;BME280;26304;48.794;9.820;2023-01-30T13:02:44;96480.44;;;19.99;45.40
40596;BME280;26304;48.794;9.820;2023-01-30T13:08:37;96482.69;;;20.51;44.94
40596;BME280;26304;48.794;9.820;2023-01-30T13:14:29;96487.97;;;20.76;45.05
40596;BME280;26304;48.794;9.820;2023-01-30T13:20:22;96495.47;;;20.92;45.09
40596;BME280;26304;48.794;9.820;2023-01-30T13:26:10;96492.13;;;20.70;45.78
40596;BME280;26304;48.794;9.820;2023-01-30T13:31:57;96492.50;;;20.32;46.83
40596;BME280;26304;48.794;9.820;2023-01-30T13:37:42;96511.72;;;19.93;47.55
40596;BME280;26304;48.794;9.820;2023-01-30T13:43:28;96536.91;;;19.66;48.11
40596;BME280;26304;48.794;9.820;2023-01-30T13:49:20;96521.75;;;19.37;48.64
40596;BME280;26304;48.794;9.820;2023-01-30T13:55:10;96535.97;;;19.18;48.85
40596;BME280;26304;48.794;9.820;2023-01-30T14:00:57;96555.06;;;18.97;49.31
40596;BME280;26304;48.794;9.820;2023-01-30T14:06:41;96550.88;;;18.93;49.45
40596;BME280;26304;48.794;9.820;2023-01-30T14:12:24;96557.91;;;18.78;49.67
40596;BME280;26304;48.794;9.820;2023-01-30T14:18:19;96580.72;;;18.56;50.11
40596;BME280;26304;48.794;9.820;2023-01-30T14:24:04;96567.06;;;18.43;49.60
40596;BME280;26304;48.794;9.820;2023-01-30T14:29:52;96577.13;;;18.33;50.27
40596;BME280;26304;48.794;9.820;2023-01-30T14:35:35;96585.69;;;18.23;50.58
40596;BME280;26304;48.794;9.820;2023-01-30T14:41:25;96589.34;;;18.11;50.60
40596;BME280;26304;48.794;9.820;2023-01-30T14:47:17;96603.00;;;18.24;50.21
40596;BME280;26304;48.794;9.820;2023-01-30T14:53:00;96607.81;;;17.85;51.25
40596;BME280;26304;48.794;9.820;2023-01-30T14:58:51;96606.19;;;17.73;50.99
40596;BME280;26304;48.794;9.820;2023-01-30T15:04:42;96621.00;;;17.58;51.09
40596;BME280;26304;48.794;9.820;2023-01-30T15:10:38;96619.34;;;17.42;51.22
40596;BME280;26304;48.794;9.820;2023-01-30T15:16:37;96630.75;;;17.27;51.59
40596;BME280;26304;48.794;9.820;2023-01-30T15:22:29;96634.00;;;14.50;50.44
40596;BME280;26304;48.794;9.820;2023-01-30T15:28:26;96643.19;;;14.00;49.18
40596;BME280;26304;48.794;9.820;2023-01-30T15:34:19;96648.75;;;13.33;49.43
40596;BME280;26304;48.794;9.820;2023-01-30T15:40:17;96652.47;;;13.20;48.35
40596;BME280;26304;48.794;9.820;2023-01-30T15:46:07;96649.09;;;13.07;48.71
40596;BME280;26304;48.794;9.820;2023-01-30T15:51:52;96649.63;;;12.88;48.78
40596;BME280;26304;48.794;9.820;2023-01-30T15:57:37;96658.94;;;12.89;48.81
40596;BME280;26304;48.794;9.820;2023-01-30T16:03:23;96654.47;;;14.93;46.79
40596;BME280;26304;48.794;9.820;2023-01-30T16:09:19;96670.16;;;16.58;44.52
40596;BME280;26304;48.794;9.820;2023-01-30T16:15:03;96677.44;;;17.91;42.84
40596;BME280;26304;48.794;9.820;2023-01-30T16:20:47;96681.31;;;18.79;42.02
40596;BME280;26304;48.794;9.820;2023-01-30T16:26:34;96688.19;;;19.36;41.84
40596;BME280;26304;48.794;9.820;2023-01-30T16:32:22;96699.84;;;19.98;41.72
40596;BME280;26304;48.794;9.820;2023-01-30T16:44:29;96716.56;;;20.41;41.99
40596;BME280;26304;48.794;9.820;2023-01-30T16:50:17;96736.88;;;20.19;43.40
40596;BME280;26304;48.794;9.820;2023-01-30T16:56:02;96738.66;;;19.93;43.83
40596;BME280;26304;48.794;9.820;2023-01-30T17:01:47;96754.03;;;19.84;44.32
40596;BME280;26304;48.794;9.820;2023-01-30T17:07:33;96761.59;;;19.89;44.39
40596;BME280;26304;48.794;9.820;2023-01-30T17:13:30;96770.94;;;20.53;43.35
40596;BME280;26304;48.794;9.820;2023-01-30T17:19:14;96772.22;;;21.10;42.55
40596;BME280;26304;48.794;9.820;2023-01-30T17:25:01;96784.31;;;21.54;41.78
40596;BME280;26304;48.794;9.820;2023-01-30T17:30:44;96788.44;;;21.84;41.21
40596;BME280;26304;48.794;9.820;2023-01-30T17:36:29;96808.81;;;22.05;41.46
40596;BME280;26304;48.794;9.820;2023-01-30T17:42:12;96818.59;;;22.33;41.30
40596;BME280;26304;48.794;9.820;2023-01-30T17:47:55;96847.28;;;22.60;41.23
40596;BME280;26304;48.794;9.820;2023-01-30T17:53:39;96849.22;;;22.48;42.19
40596;BME280;26304;48.794;9.820;2023-01-30T17:59:22;96857.22;;;22.12;43.29
40596;BME280;26304;48.794;9.820;2023-01-30T18:05:05;96854.59;;;21.84;44.24
40596;BME280;26304;48.794;9.820;2023-01-30T18:10:48;96847.00;;;21.21;44.77
40596;BME280;26304;48.794;9.820;2023-01-30T18:16:31;96854.88;;;20.99;45.14
40596;BME280;26304;48.794;9.820;2023-01-30T18:22:13;96847.28;;;20.83;46.10
40596;BME280;26304;48.794;9.820;2023-01-30T18:27:57;96865.34;;;20.67;46.26
40596;BME280;26304;48.794;9.820;2023-01-30T18:33:40;96864.81;;;20.40;46.92
40596;BME280;26304;48.794;9.820;2023-01-30T18:39:24;96878.69;;;20.26;47.06
40596;BME280;26304;48.794;9.820;2023-01-30T18:45:09;96892.16;;;20.06;48.27
40596;BME280;26304;48.794;9.820;2023-01-30T18:50:51;96899.16;;;19.88;47.79
40596;BME280;26304;48.794;9.820;2023-01-30T18:56:34;96903.34;;;19.92;47.56
40596;BME280;26304;48.794;9.820;2023-01-30T19:02:18;96920.47;;;20.09;47.21
40596;BME280;26304;48.794;9.820;2023-01-30T19:08:01;96916.47;;;20.37;47.24
40596;BME280;26304;48.794;9.820;2023-01-30T19:13:43;96922.50;;;20.34;47.31
40596;BME280;26304;48.794;9.820;2023-01-30T19:19:27;96916.34;;;20.16;47.95
40596;BME280;26304;48.794;9.820;2023-01-30T19:25:09;96909.78;;;19.95;48.25
40596;BME280;26304;48.794;9.820;2023-01-30T19:30:52;96915.94;;;19.69;48.82
40596;BME280;26304;48.794;9.820;2023-01-30T19:36:35;96927.41;;;19.80;48.55
40596;BME280;26304;48.794;9.820;2023-01-30T19:42:18;96943.50;;;19.75;49.02
40596;BME280;26304;48.794;9.820;2023-01-30T19:48:00;96961.91;;;19.68;49.41
40596;BME280;26304;48.794;9.820;2023-01-30T19:53:45;96975.09;;;19.64;49.65
40596;BME280;26304;48.794;9.820;2023-01-30T19:59:30;96964.91;;;19.63;49.91
40596;BME280;26304;48.794;9.820;2023-01-30T20:05:14;96966.34;;;19.56;49.92
40596;BME280;26304;48.794;9.820;2023-01-30T20:11:01;96984.31;;;19.47;49.96
40596;BME280;26304;48.794;9.820;2023-01-30T20:16:44;96993.22;;;18.25;47.11
40596;BME280;26304;48.794;9.820;2023-01-30T20:22:26;97007.31;;;17.70;45.83
40596;BME280;26304;48.794;9.820;2023-01-30T20:28:10;96998.81;;;17.38;44.30
40596;BME280;26304;48.794;9.820;2023-01-30T20:33:53;96996.78;;;17.12;43.26
40596;BME280;26304;48.794;9.820;2023-01-30T20:39:37;96993.44;;;16.60;44.43
40596;BME280;26304;48.794;9.820;2023-01-30T20:45:21;96979.84;;;16.74;44.87
40596;BME280;26304;48.794;9.820;2023-01-30T20:51:05;96979.69;;;16.66;44.17
40596;BME280;26304;48.794;9.820;2023-01-30T20:56:49;96982.78;;;16.37;43.34
40596;BME280;26304;48.794;9.820;2023-01-30T21:02:33;96999.53;;;16.16;44.38
40596;BME280;26304;48.794;9.820;2023-01-30T21:08:16;96996.16;;;16.31;44.64
40596;BME280;26304;48.794;9.820;2023-01-30T21:13:58;97016.53;;;16.54;44.54
40596;BME280;26304;48.794;9.820;2023-01-30T21:19:42;97015.88;;;16.57;45.08
40596;BME280;26304;48.794;9.820;2023-01-30T21:25:25;97032.03;;;16.59;44.88
40596;BME280;26304;48.794;9.820;2023-01-30T21:31:09;97043.97;;;16.57;45.08
40596;BME280;26304;48.794;9.820;2023-01-30T21:36:54;97039.75;;;16.52;46.02
40596;BME280;26304;48.794;9.820;2023-01-30T21:42:52;97040.84;;;16.51;45.67
40596;BME280;26304;48.794;9.820;2023-01-30T21:48:53;97038.06;;;16.44;46.60
40596;BME280;26304;48.794;9.820;2023-01-30T21:54:36;97046.59;;;16.41;46.81
40596;BME280;26304;48.794;9.820;2023-01-30T22:00:19;97049.91;;;16.38;46.76
40596;BME280;26304;48.794;9.820;2023-01-30T22:06:02;97058.47;;;16.34;47.19
40596;BME280;26304;48.794;9.820;2023-01-30T22:11:46;97059.53;;;16.33;47.38
40596;BME280;26304;48.794;9.820;2023-01-30T22:17:29;97071.50;;;16.31;47.12
40596;BME280;26304;48.794;9.820;2023-01-30T22:23:11;97065.81;;;16.29;47.68
40596;BME280;26304;48.794;9.820;2023-01-30T22:28:56;97079.16;;;16.24;47.57
40596;BME280;26304;48.794;9.820;2023-01-30T22:34:39;97075.03;;;16.23;48.16
40596;BME280;26304;48.794;9.820;2023-01-30T22:40:21;97068.06;;;16.14;48.01
40596;BME280;26304;48.794;9.820;2023-01-30T22:46:06;97068.41;;;16.13;48.28
40596;BME280;26304;48.794;9.820;2023-01-30T22:51:49;97060.13;;;16.11;48.05
40596;BME280;26304;48.794;9.820;2023-01-30T22:57:31;97051.63;;;16.02;48.69
40596;BME280;26304;48.794;9.820;2023-01-30T23:03:15;97055.59;;;15.95;48.54
40596;BME280;26304;48.794;9.820;2023-01-30T23:08:58;97064.81;;;15.89;48.52
40596;BME280;26304;48.794;9.820;2023-01-30T23:14:41;97064.72;;;15.86;49.12
40596;BME280;26304;48.794;9.820;2023-01-30T23:20:25;97069.19;;;15.85;48.96
40596;BME280;26304;48.794;9.820;2023-01-30T23:26:07;97074.91;;;15.75;49.19
40596;BME280;26304;48.794;9.820;2023-01-30T23:31:50;97071.16;;;15.76;49.05
40596;BME280;26304;48.794;9.820;2023-01-30T23:37:34;97073.16;;;15.67;49.85
40596;BME280;26304;48.794;9.820;2023-01-30T23:43:34;97067.81;;;15.63;49.31
40596;BME280;26304;48.794;9.820;2023-01-30T23:49:16;97058.00;;;15.60;49.42
40596;BME280;26304;48.794;9.820;2023-01-30T23:55:00;97066.19;;;15.58;49.86
